Terminal Aerodrome Forecast
Issued by NWS Omaha/Valley, NE

Home | Current Version | Previous Version | Graphics & Text | Print | Product List | Glossary Off
Versions: 1 2 3 4 5 6 7 8 9 10 11 12 13 14 15 16 17 18 19 20 21 22 23 24 25 26 27 28 29 30 31 32

000
FTUS43 KOAX 281228 AAA
TAFOFK
TAF AMD
KOFK 281228Z 2812/2912 18010KT P6SM VCTS BKN100CB
     FM281400 22008KT P6SM SCT120
     FM281600 26009KT P6SM FEW200
     FM282000 29008KT P6SM FEW250
     FM290200 01005KT P6SM FEW250
     FM290400 07004KT P6SM SCT200=

USA.gov is the U.S. government's official web portal to all federal, state and local government web resources and services.